Ms Folla 2 — LLPD — position and weather

sailwx.info

Track history (hours):
 
Tides and Currents Weather Stations Pressure Air Temp Water Temp Dewpoint Dewpoint Depression Visibility Wind Speed Wind Dir Waves Ship Positions

Ms Folla 2

Last reported at 2016-Jun-24 23:08 UTC. Time now 2016-Jun-25 01:46 UTC.
Position N 68°05' E 013°54'.

Length 52 m; draft 5.5 m.

Type: Ship. MMSI: 258253000.

Date/timePositionNaut miles runAvg speedWind from/ knotsBaromVisibWave heightAir tempDewpointWater temp
2016-Jun-24 23:08N 68°05' E 013°54'89 7.7
2016-Jun-24 11:32N 66°43' E 012°25'1010.4
2016-Jun-24 10:33N 66°33' E 012°19'5 4.9
2016-Jun-24 09:33N 66°30' E 012°08'1110.8
2016-Jun-24 08:33N 66°29' E 012°35'1010.0
2016-Jun-24 07:32N 66°31' E 012°60'75 8.3
2016-Jun-23 22:33N 65°20' E 012°02'1110.8
2016-Jun-23 21:33N 65°10' E 011°51'1110.6
2016-Jun-23 20:33N 65°01' E 011°39'1010.4
2016-Jun-23 19:33N 64°54' E 011°20'8 7.7
2016-Jun-23 18:33N 64°49' E 011°08'1010.1
2016-Jun-23 17:33N 64°38' E 011°09'4 0.2
2016-Jun-22 18:28N 64°36' E 011°16'9 9.6
2016-Jun-22 17:33N 64°44' E 011°07'8 8.0
2016-Jun-22 16:33N 64°52' E 011°14'1 1.0
2016-Jun-22 15:33N 64°51' E 011°17'0 0.0
2016-Jun-22 14:33N 64°51' E 011°17'0 0.0
2016-Jun-22 13:33N 64°51' E 011°17'0 0.0
2016-Jun-22 12:33N 64°51' E 011°17'0 0.0
2016-Jun-22 11:33N 64°51' E 011°17'0 0.0
2016-Jun-22 10:33N 64°51' E 011°17'0 0.0
2016-Jun-22 09:33N 64°51' E 011°17'7 7.1
2016-Jun-22 08:33N 64°46' E 011°05'9 8.8
2016-Jun-22 07:33N 64°43' E 011°24'1 1.4
2016-Jun-22 06:34N 64°43' E 011°28'0 0.0
2016-Jun-22 05:33N 64°43' E 011°28'2 2.2
2016-Jun-22 04:33N 64°43' E 011°23'8 8.4
2016-Jun-22 03:33N 64°47' E 011°05'7 6.9
2016-Jun-22 02:33N 64°51' E 011°17'0 0.0
2016-Jun-22 01:33N 64°51' E 011°17'0 0.0
2016-Jun-22 00:33N 64°51' E 011°17'0 0.0
2016-Jun-21 23:33N 64°51' E 011°17'0 0.0
2016-Jun-21 22:33N 64°51' E 011°17'0 0.0
2016-Jun-21 21:33N 64°51' E 011°17'0 0.0
2016-Jun-21 20:33N 64°51' E 011°17'0 0.0
2016-Jun-21 19:33N 64°51' E 011°17'0 0.0
2016-Jun-21 18:33N 64°51' E 011°17'4 3.8
2016-Jun-21 17:33N 64°55' E 011°22'7 3.4
2016-Jun-21 15:31N 64°58' E 011°37'9 9.6
2016-Jun-21 14:33N 65°06' E 011°47'83 9.3
2016-Jun-21 05:33N 66°29' E 012°05'7 7.3
2016-Jun-21 04:33N 66°33' E 012°19'1111.2
2016-Jun-21 03:33N 66°42' E 012°37'2411.4
2016-Jun-21 01:27N 66°59' E 013°21'1011.4
2016-Jun-21 00:33N 67°06' E 013°40'1111.4
2016-Jun-20 23:33N 67°13' E 014°03'9 9.1
2016-Jun-20 22:33N 67°17' E 014°24'5 4.9
2016-Jun-20 21:33N 67°22' E 014°25'1110.8
2016-Jun-20 20:32N 67°33' E 014°17'35 6.5
2016-Jun-20 15:12N 68°04' E 013°37'10910.2
2016-Jun-20 04:33N 69°08' E 017°39'9 9.3
2016-Jun-20 03:33N 69°14' E 017°58'1 0.0
2016-Jun-19 00:33N 69°15' E 017°59'2 1.6
2016-Jun-18 23:33N 69°14' E 017°59'6 6.1
2016-Jun-18 22:33N 69°09' E 017°49'1010.2
2016-Jun-18 21:34N 69°01' E 017°30'157 4.6
2016-Jun-17 11:30N 66°55' E 013°20'17 8.3
2016-Jun-17 09:26N 66°39' E 013°02'8 8.0
2016-Jun-17 08:23N 66°31' E 013°00'5 6.5
2016-Jun-17 07:33N 66°27' E 012°50'5 5.2
2016-Jun-17 06:33N 66°23' E 012°43'1110.2
2016-Jun-17 05:26N 66°11' E 012°40'54 7.8
2016-Jun-16 22:33N 65°20' E 012°02'1110.9
2016-Jun-16 21:34N 65°10' E 011°51'1110.6
2016-Jun-16 20:34N 65°01' E 011°40'1010.5
2016-Jun-16 19:34N 64°54' E 011°21'8 7.8
2016-Jun-16 18:34N 64°49' E 011°08'10 9.6
2016-Jun-16 17:33N 64°39' E 011°08'8 0.3
2016-Jun-15 16:24N 64°34' E 011°21'910.6
2016-Jun-15 15:34N 64°40' E 011°07'1010.3
2016-Jun-15 14:34N 64°50' E 011°12'2 1.8
2016-Jun-15 13:34N 64°52' E 011°15'1 1.1
2016-Jun-15 12:33N 64°52' E 011°17'0 0.0
2016-Jun-15 11:33N 64°52' E 011°17'0 0.0
2016-Jun-15 10:33N 64°52' E 011°17'0 0.0
2016-Jun-15 09:34N 64°52' E 011°17'0 0.0
2016-Jun-15 08:34N 64°52' E 011°17'0 0.0
2016-Jun-15 07:34N 64°52' E 011°17'0 0.0
2016-Jun-15 06:34N 64°52' E 011°17'0 0.0
2016-Jun-15 05:33N 64°52' E 011°17'0 0.0
2016-Jun-15 04:33N 64°52' E 011°17'0 0.0
2016-Jun-15 03:34N 64°52' E 011°17'0 0.0
2016-Jun-15 02:33N 64°52' E 011°17'0 0.0
2016-Jun-15 01:34N 64°52' E 011°17'0 0.0
2016-Jun-15 00:33N 64°52' E 011°17'0 0.0
2016-Jun-14 23:34N 64°52' E 011°17'  
Track history (hours):
 
Tides and Currents Weather Stations Pressure Air Temp Water Temp Dewpoint Dewpoint Depression Visibility Wind Speed Wind Dir Waves Ship Positions

Ms Folla 2

Last reported at 2016-Jun-24 23:08 UTC. Time now 2016-Jun-25 01:46 UTC.
Position N 68°05' E 013°54'.

Length 52 m; draft 5.5 m.

Type: Ship. MMSI: 258253000.

Date/timePositionNaut miles runAvg speedWind from/ knotsBaromVisibWave heightAir tempDewpointWater temp
2016-Jun-24 23:08N 68°05' E 013°54'89 7.7
2016-Jun-24 11:32N 66°43' E 012°25'1010.4
2016-Jun-24 10:33N 66°33' E 012°19'5 4.9
2016-Jun-24 09:33N 66°30' E 012°08'1110.8
2016-Jun-24 08:33N 66°29' E 012°35'1010.0
2016-Jun-24 07:32N 66°31' E 012°60'75 8.3
2016-Jun-23 22:33N 65°20' E 012°02'1110.8
2016-Jun-23 21:33N 65°10' E 011°51'1110.6
2016-Jun-23 20:33N 65°01' E 011°39'1010.4
2016-Jun-23 19:33N 64°54' E 011°20'8 7.7
2016-Jun-23 18:33N 64°49' E 011°08'1010.1
2016-Jun-23 17:33N 64°38' E 011°09'4 0.2
2016-Jun-22 18:28N 64°36' E 011°16'9 9.6
2016-Jun-22 17:33N 64°44' E 011°07'8 8.0
2016-Jun-22 16:33N 64°52' E 011°14'1 1.0
2016-Jun-22 15:33N 64°51' E 011°17'0 0.0
2016-Jun-22 14:33N 64°51' E 011°17'0 0.0
2016-Jun-22 13:33N 64°51' E 011°17'0 0.0
2016-Jun-22 12:33N 64°51' E 011°17'0 0.0
2016-Jun-22 11:33N 64°51' E 011°17'0 0.0
2016-Jun-22 10:33N 64°51' E 011°17'0 0.0
2016-Jun-22 09:33N 64°51' E 011°17'7 7.1
2016-Jun-22 08:33N 64°46' E 011°05'9 8.8
2016-Jun-22 07:33N 64°43' E 011°24'1 1.4
2016-Jun-22 06:34N 64°43' E 011°28'0 0.0
2016-Jun-22 05:33N 64°43' E 011°28'2 2.2
2016-Jun-22 04:33N 64°43' E 011°23'8 8.4
2016-Jun-22 03:33N 64°47' E 011°05'7 6.9
2016-Jun-22 02:33N 64°51' E 011°17'0 0.0
2016-Jun-22 01:33N 64°51' E 011°17'0 0.0
2016-Jun-22 00:33N 64°51' E 011°17'0 0.0
2016-Jun-21 23:33N 64°51' E 011°17'0 0.0
2016-Jun-21 22:33N 64°51' E 011°17'0 0.0
2016-Jun-21 21:33N 64°51' E 011°17'0 0.0
2016-Jun-21 20:33N 64°51' E 011°17'0 0.0
2016-Jun-21 19:33N 64°51' E 011°17'0 0.0
2016-Jun-21 18:33N 64°51' E 011°17'4 3.8
2016-Jun-21 17:33N 64°55' E 011°22'7 3.4
2016-Jun-21 15:31N 64°58' E 011°37'9 9.6
2016-Jun-21 14:33N 65°06' E 011°47'83 9.3
2016-Jun-21 05:33N 66°29' E 012°05'7 7.3
2016-Jun-21 04:33N 66°33' E 012°19'1111.2
2016-Jun-21 03:33N 66°42' E 012°37'2411.4
2016-Jun-21 01:27N 66°59' E 013°21'1011.4
2016-Jun-21 00:33N 67°06' E 013°40'1111.4
2016-Jun-20 23:33N 67°13' E 014°03'9 9.1
2016-Jun-20 22:33N 67°17' E 014°24'5 4.9
2016-Jun-20 21:33N 67°22' E 014°25'1110.8
2016-Jun-20 20:32N 67°33' E 014°17'35 6.5
2016-Jun-20 15:12N 68°04' E 013°37'10910.2
2016-Jun-20 04:33N 69°08' E 017°39'9 9.3
2016-Jun-20 03:33N 69°14' E 017°58'1 0.0
2016-Jun-19 00:33N 69°15' E 017°59'2 1.6
2016-Jun-18 23:33N 69°14' E 017°59'6 6.1
2016-Jun-18 22:33N 69°09' E 017°49'1010.2
2016-Jun-18 21:34N 69°01' E 017°30'157 4.6
2016-Jun-17 11:30N 66°55' E 013°20'17 8.3
2016-Jun-17 09:26N 66°39' E 013°02'8 8.0
2016-Jun-17 08:23N 66°31' E 013°00'5 6.5
2016-Jun-17 07:33N 66°27' E 012°50'5 5.2
2016-Jun-17 06:33N 66°23' E 012°43'1110.2
2016-Jun-17 05:26N 66°11' E 012°40'54 7.8
2016-Jun-16 22:33N 65°20' E 012°02'1110.9
2016-Jun-16 21:34N 65°10' E 011°51'1110.6
2016-Jun-16 20:34N 65°01' E 011°40'1010.5
2016-Jun-16 19:34N 64°54' E 011°21'8 7.8
2016-Jun-16 18:34N 64°49' E 011°08'10 9.6
2016-Jun-16 17:33N 64°39' E 011°08'8 0.3
2016-Jun-15 16:24N 64°34' E 011°21'910.6
2016-Jun-15 15:34N 64°40' E 011°07'1010.3
2016-Jun-15 14:34N 64°50' E 011°12'2 1.8
2016-Jun-15 13:34N 64°52' E 011°15'1 1.1
2016-Jun-15 12:33N 64°52' E 011°17'0 0.0
2016-Jun-15 11:33N 64°52' E 011°17'0 0.0
2016-Jun-15 10:33N 64°52' E 011°17'0 0.0
2016-Jun-15 09:34N 64°52' E 011°17'0 0.0
2016-Jun-15 08:34N 64°52' E 011°17'0 0.0
2016-Jun-15 07:34N 64°52' E 011°17'0 0.0
2016-Jun-15 06:34N 64°52' E 011°17'0 0.0
2016-Jun-15 05:33N 64°52' E 011°17'0 0.0
2016-Jun-15 04:33N 64°52' E 011°17'0 0.0
2016-Jun-15 03:34N 64°52' E 011°17'0 0.0
2016-Jun-15 02:33N 64°52' E 011°17'0 0.0
2016-Jun-15 01:34N 64°52' E 011°17'0 0.0
2016-Jun-15 00:33N 64°52' E 011°17'0 0.0
2016-Jun-14 23:34N 64°52' E 011°17'  

Dump ship's entire track history